sensor_id;sensor_type;location;lat;lon;timestamp;P1;durP1;ratioP1;P2;durP2;ratioP2
5630;SDS011;2837;50.990;7.124;2022-08-07T05:01:43;153.90;;;11.10;;
5630;SDS011;2837;50.990;7.124;2022-08-07T05:09:28;154.83;;;11.13;;
5630;SDS011;2837;50.990;7.124;2022-08-07T05:12:18;153.77;;;10.80;;
5630;SDS011;2837;50.990;7.124;2022-08-07T05:14:50;153.83;;;11.50;;
5630;SDS011;2837;50.990;7.124;2022-08-07T05:17:18;153.23;;;10.43;;
5630;SDS011;2837;50.990;7.124;2022-08-07T05:19:46;152.53;;;10.20;;
5630;SDS011;2837;50.990;7.124;2022-08-07T05:22:16;151.77;;;9.70;;
5630;SDS011;2837;50.990;7.124;2022-08-07T05:24:44;154.37;;;11.00;;
5630;SDS011;2837;50.990;7.124;2022-08-07T05:27:12;152.40;;;9.83;;
5630;SDS011;2837;50.990;7.124;2022-08-07T05:29:40;153.17;;;10.43;;
5630;SDS011;2837;50.990;7.124;2022-08-07T05:32:09;153.03;;;10.90;;
5630;SDS011;2837;50.990;7.124;2022-08-07T05:34:36;153.30;;;10.03;;
5630;SDS011;2837;50.990;7.124;2022-08-07T05:37:04;154.90;;;10.60;;
5630;SDS011;2837;50.990;7.124;2022-08-07T05:39:31;153.67;;;11.17;;
5630;SDS011;2837;50.990;7.124;2022-08-07T05:41:59;152.80;;;10.17;;
5630;SDS011;2837;50.990;7.124;2022-08-07T05:44:24;152.93;;;9.63;;
5630;SDS011;2837;50.990;7.124;2022-08-07T05:46:52;153.07;;;10.33;;
5630;SDS011;2837;50.990;7.124;2022-08-07T05:49:17;153.73;;;10.70;;
5630;SDS011;2837;50.990;7.124;2022-08-07T05:51:45;152.37;;;10.20;;
5630;SDS011;2837;50.990;7.124;2022-08-07T05:54:11;152.47;;;9.70;;
5630;SDS011;2837;50.990;7.124;2022-08-07T05:56:40;152.73;;;10.43;;
5630;SDS011;2837;50.990;7.124;2022-08-07T05:59:07;153.07;;;10.53;;
5630;SDS011;2837;50.990;7.124;2022-08-07T06:01:39;152.50;;;9.60;;
5630;SDS011;2837;50.990;7.124;2022-08-07T06:04:07;152.73;;;10.73;;
5630;SDS011;2837;50.990;7.124;2022-08-07T06:06:34;152.07;;;9.70;;
5630;SDS011;2837;50.990;7.124;2022-08-07T06:09:00;152.87;;;10.63;;
5630;SDS011;2837;50.990;7.124;2022-08-07T06:11:27;153.07;;;10.57;;
5630;SDS011;2837;50.990;7.124;2022-08-07T06:13:53;152.70;;;10.80;;
5630;SDS011;2837;50.990;7.124;2022-08-07T06:16:19;153.40;;;10.03;;
5630;SDS011;2837;50.990;7.124;2022-08-07T06:18:47;152.60;;;10.13;;
5630;SDS011;2837;50.990;7.124;2022-08-07T06:21:14;152.43;;;10.00;;
5630;SDS011;2837;50.990;7.124;2022-08-07T06:23:40;152.37;;;9.90;;
5630;SDS011;2837;50.990;7.124;2022-08-07T06:26:06;152.67;;;10.80;;
5630;SDS011;2837;50.990;7.124;2022-08-07T06:28:46;152.53;;;10.37;;
5630;SDS011;2837;50.990;7.124;2022-08-07T06:31:16;152.47;;;9.80;;
5630;SDS011;2837;50.990;7.124;2022-08-07T06:33:42;153.17;;;9.87;;
5630;SDS011;2837;50.990;7.124;2022-08-07T06:36:09;152.30;;;10.20;;
5630;SDS011;2837;50.990;7.124;2022-08-07T06:38:35;151.57;;;9.20;;
5630;SDS011;2837;50.990;7.124;2022-08-07T06:41:01;151.90;;;10.07;;
5630;SDS011;2837;50.990;7.124;2022-08-07T06:43:31;151.37;;;9.03;;
5630;SDS011;2837;50.990;7.124;2022-08-07T06:46:00;153.13;;;10.20;;
5630;SDS011;2837;50.990;7.124;2022-08-07T06:48:26;153.23;;;8.80;;
5630;SDS011;2837;50.990;7.124;2022-08-07T06:50:52;151.13;;;8.80;;
5630;SDS011;2837;50.990;7.124;2022-08-07T06:53:20;151.00;;;9.13;;
5630;SDS011;2837;50.990;7.124;2022-08-07T06:55:47;150.07;;;8.27;;
5630;SDS011;2837;50.990;7.124;2022-08-07T06:58:14;151.13;;;8.90;;
5630;SDS011;2837;50.990;7.124;2022-08-07T07:00:41;151.20;;;9.33;;
5630;SDS011;2837;50.990;7.124;2022-08-07T07:03:08;152.53;;;8.97;;
5630;SDS011;2837;50.990;7.124;2022-08-07T07:05:35;150.97;;;9.13;;
5630;SDS011;2837;50.990;7.124;2022-08-07T07:08:01;150.93;;;9.17;;
5630;SDS011;2837;50.990;7.124;2022-08-07T07:10:31;151.40;;;9.07;;
5630;SDS011;2837;50.990;7.124;2022-08-07T07:13:13;151.73;;;9.60;;
5630;SDS011;2837;50.990;7.124;2022-08-07T07:15:46;151.10;;;9.97;;
5630;SDS011;2837;50.990;7.124;2022-08-07T07:21:07;149.87;;;8.90;;
5630;SDS011;2837;50.990;7.124;2022-08-07T07:23:39;150.33;;;9.13;;
5630;SDS011;2837;50.990;7.124;2022-08-07T07:26:06;151.53;;;9.70;;
5630;SDS011;2837;50.990;7.124;2022-08-07T07:28:39;151.37;;;9.80;;
5630;SDS011;2837;50.990;7.124;2022-08-07T07:31:11;151.00;;;9.50;;
5630;SDS011;2837;50.990;7.124;2022-08-07T07:33:43;152.43;;;10.33;;
5630;SDS011;2837;50.990;7.124;2022-08-07T07:36:12;151.57;;;9.43;;
5630;SDS011;2837;50.990;7.124;2022-08-07T07:38:39;154.27;;;9.93;;
5630;SDS011;2837;50.990;7.124;2022-08-07T07:41:06;153.47;;;9.60;;
5630;SDS011;2837;50.990;7.124;2022-08-07T07:43:33;149.30;;;8.80;;
5630;SDS011;2837;50.990;7.124;2022-08-07T07:46:03;151.50;;;10.07;;
5630;SDS011;2837;50.990;7.124;2022-08-07T07:48:30;150.30;;;9.70;;
5630;SDS011;2837;50.990;7.124;2022-08-07T07:50:56;151.57;;;10.50;;
5630;SDS011;2837;50.990;7.124;2022-08-07T07:53:24;151.67;;;10.07;;
5630;SDS011;2837;50.990;7.124;2022-08-07T07:55:51;152.60;;;9.93;;
5630;SDS011;2837;50.990;7.124;2022-08-07T07:58:18;151.80;;;10.07;;
5630;SDS011;2837;50.990;7.124;2022-08-07T08:00:46;149.67;;;9.10;;
5630;SDS011;2837;50.990;7.124;2022-08-07T08:03:15;150.07;;;9.77;;
5630;SDS011;2837;50.990;7.124;2022-08-07T08:05:44;150.37;;;9.20;;
5630;SDS011;2837;50.990;7.124;2022-08-07T08:08:10;149.27;;;9.70;;
5630;SDS011;2837;50.990;7.124;2022-08-07T08:10:37;149.93;;;9.90;;
5630;SDS011;2837;50.990;7.124;2022-08-07T08:13:03;149.47;;;9.43;;
5630;SDS011;2837;50.990;7.124;2022-08-07T08:15:32;149.47;;;9.60;;
5630;SDS011;2837;50.990;7.124;2022-08-07T08:18:02;149.47;;;9.27;;
5630;SDS011;2837;50.990;7.124;2022-08-07T08:20:32;150.00;;;8.97;;
5630;SDS011;2837;50.990;7.124;2022-08-07T08:22:59;149.27;;;8.83;;
5630;SDS011;2837;50.990;7.124;2022-08-07T08:25:46;149.80;;;9.30;;
5630;SDS011;2837;50.990;7.124;2022-08-07T08:28:38;149.10;;;8.73;;
5630;SDS011;2837;50.990;7.124;2022-08-07T08:31:08;149.00;;;8.30;;
5630;SDS011;2837;50.990;7.124;2022-08-07T08:33:35;148.53;;;8.83;;
5630;SDS011;2837;50.990;7.124;2022-08-07T08:36:03;149.40;;;9.13;;
5630;SDS011;2837;50.990;7.124;2022-08-07T08:38:31;149.17;;;9.30;;
5630;SDS011;2837;50.990;7.124;2022-08-07T08:41:01;149.97;;;9.07;;
5630;SDS011;2837;50.990;7.124;2022-08-07T08:43:45;150.37;;;9.03;;
5630;SDS011;2837;50.990;7.124;2022-08-07T08:46:30;148.40;;;8.53;;
5630;SDS011;2837;50.990;7.124;2022-08-07T08:49:11;148.50;;;9.40;;
5630;SDS011;2837;50.990;7.124;2022-08-07T08:51:58;148.10;;;8.47;;
5630;SDS011;2837;50.990;7.124;2022-08-07T08:54:31;148.57;;;9.10;;
5630;SDS011;2837;50.990;7.124;2022-08-07T08:57:04;148.23;;;8.77;;
5630;SDS011;2837;50.990;7.124;2022-08-07T08:59:40;148.33;;;8.90;;
5630;SDS011;2837;50.990;7.124;2022-08-07T09:08:04;147.70;;;8.53;;
5630;SDS011;2837;50.990;7.124;2022-08-07T09:11:00;147.60;;;8.30;;
5630;SDS011;2837;50.990;7.124;2022-08-07T09:13:40;149.20;;;8.20;;
5630;SDS011;2837;50.990;7.124;2022-08-07T09:25:09;146.90;;;8.00;;
5630;SDS011;2837;50.990;7.124;2022-08-07T09:28:01;147.47;;;8.00;;
5630;SDS011;2837;50.990;7.124;2022-08-07T09:30:35;146.87;;;7.87;;
5630;SDS011;2837;50.990;7.124;2022-08-07T09:33:15;148.30;;;8.50;;
5630;SDS011;2837;50.990;7.124;2022-08-07T09:36:11;146.67;;;8.10;;
5630;SDS011;2837;50.990;7.124;2022-08-07T09:38:44;146.80;;;7.27;;
5630;SDS011;2837;50.990;7.124;2022-08-07T09:41:45;145.87;;;7.80;;
5630;SDS011;2837;50.990;7.124;2022-08-07T09:47:45;150.17;;;8.50;;
5630;SDS011;2837;50.990;7.124;2022-08-07T09:53:01;146.80;;;8.53;;
5630;SDS011;2837;50.990;7.124;2022-08-07T09:58:33;146.97;;;8.43;;
5630;SDS011;2837;50.990;7.124;2022-08-07T10:18:51;146.90;;;8.20;;
5630;SDS011;2837;50.990;7.124;2022-08-07T10:24:16;146.70;;;8.50;;
5630;SDS011;2837;50.990;7.124;2022-08-07T10:37:45;147.33;;;8.60;;
5630;SDS011;2837;50.990;7.124;2022-08-07T10:40:49;147.57;;;8.60;;
5630;SDS011;2837;50.990;7.124;2022-08-07T10:43:55;149.17;;;8.33;;
5630;SDS011;2837;50.990;7.124;2022-08-07T10:46:48;147.43;;;8.77;;
5630;SDS011;2837;50.990;7.124;2022-08-07T10:49:49;148.20;;;8.80;;
5630;SDS011;2837;50.990;7.124;2022-08-07T10:52:27;146.93;;;8.40;;
5630;SDS011;2837;50.990;7.124;2022-08-07T10:55:10;147.07;;;8.03;;
5630;SDS011;2837;50.990;7.124;2022-08-07T10:57:42;147.97;;;8.87;;
5630;SDS011;2837;50.990;7.124;2022-08-07T11:00:30;147.40;;;8.00;;
5630;SDS011;2837;50.990;7.124;2022-08-07T11:03:13;148.87;;;8.27;;
5630;SDS011;2837;50.990;7.124;2022-08-07T11:05:57;147.43;;;8.03;;
5630;SDS011;2837;50.990;7.124;2022-08-07T11:08:53;148.30;;;8.87;;
5630;SDS011;2837;50.990;7.124;2022-08-07T11:11:36;146.67;;;7.67;;
5630;SDS011;2837;50.990;7.124;2022-08-07T11:14:25;147.97;;;7.87;;
5630;SDS011;2837;50.990;7.124;2022-08-07T11:17:10;147.33;;;7.63;;
5630;SDS011;2837;50.990;7.124;2022-08-07T11:19:55;146.70;;;8.30;;
5630;SDS011;2837;50.990;7.124;2022-08-07T11:28:08;146.63;;;7.87;;
5630;SDS011;2837;50.990;7.124;2022-08-07T11:31:01;146.37;;;7.93;;
5630;SDS011;2837;50.990;7.124;2022-08-07T11:33:45;146.87;;;8.10;;
5630;SDS011;2837;50.990;7.124;2022-08-07T11:39:03;146.23;;;7.63;;
5630;SDS011;2837;50.990;7.124;2022-08-07T11:41:49;146.67;;;8.07;;
5630;SDS011;2837;50.990;7.124;2022-08-07T11:44:57;146.83;;;8.17;;
5630;SDS011;2837;50.990;7.124;2022-08-07T11:50:10;147.17;;;7.83;;
5630;SDS011;2837;50.990;7.124;2022-08-07T11:52:54;146.87;;;8.07;;
5630;SDS011;2837;50.990;7.124;2022-08-07T11:55:44;145.70;;;6.80;;
5630;SDS011;2837;50.990;7.124;2022-08-07T11:58:15;145.80;;;6.90;;
5630;SDS011;2837;50.990;7.124;2022-08-07T12:01:00;146.27;;;8.10;;
5630;SDS011;2837;50.990;7.124;2022-08-07T12:04:12;150.07;;;8.27;;
5630;SDS011;2837;50.990;7.124;2022-08-07T12:07:02;146.80;;;7.87;;
5630;SDS011;2837;50.990;7.124;2022-08-07T12:09:35;146.00;;;8.07;;
5630;SDS011;2837;50.990;7.124;2022-08-07T12:14:45;146.70;;;7.50;;
5630;SDS011;2837;50.990;7.124;2022-08-07T12:17:13;144.77;;;6.80;;
5630;SDS011;2837;50.990;7.124;2022-08-07T12:19:45;146.27;;;7.70;;
5630;SDS011;2837;50.990;7.124;2022-08-07T12:22:31;146.27;;;7.40;;
5630;SDS011;2837;50.990;7.124;2022-08-07T12:28:16;146.07;;;7.43;;
5630;SDS011;2837;50.990;7.124;2022-08-07T12:30:48;145.17;;;7.27;;
5630;SDS011;2837;50.990;7.124;2022-08-07T12:33:18;145.60;;;8.00;;
5630;SDS011;2837;50.990;7.124;2022-08-07T12:35:48;145.47;;;7.30;;
5630;SDS011;2837;50.990;7.124;2022-08-07T12:38:16;145.27;;;7.07;;
5630;SDS011;2837;50.990;7.124;2022-08-07T12:40:43;149.17;;;7.60;;
5630;SDS011;2837;50.990;7.124;2022-08-07T12:43:11;148.30;;;7.90;;
5630;SDS011;2837;50.990;7.124;2022-08-07T12:48:28;144.80;;;7.13;;
5630;SDS011;2837;50.990;7.124;2022-08-07T12:51:20;145.73;;;7.43;;
5630;SDS011;2837;50.990;7.124;2022-08-07T12:56:30;145.90;;;8.27;;
5630;SDS011;2837;50.990;7.124;2022-08-07T12:59:01;144.97;;;7.67;;
5630;SDS011;2837;50.990;7.124;2022-08-07T13:12:47;146.50;;;7.77;;
5630;SDS011;2837;50.990;7.124;2022-08-07T13:18:28;145.57;;;7.97;;
5630;SDS011;2837;50.990;7.124;2022-08-07T13:20:58;146.30;;;8.13;;
5630;SDS011;2837;50.990;7.124;2022-08-07T13:23:44;145.07;;;7.33;;
5630;SDS011;2837;50.990;7.124;2022-08-07T13:26:18;145.27;;;7.60;;
5630;SDS011;2837;50.990;7.124;2022-08-07T13:31:38;144.87;;;7.53;;
5630;SDS011;2837;50.990;7.124;2022-08-07T13:34:22;145.27;;;6.87;;
5630;SDS011;2837;50.990;7.124;2022-08-07T13:37:19;144.80;;;7.30;;
5630;SDS011;2837;50.990;7.124;2022-08-07T13:42:38;145.27;;;7.97;;
5630;SDS011;2837;50.990;7.124;2022-08-07T13:45:06;144.70;;;7.33;;
5630;SDS011;2837;50.990;7.124;2022-08-07T13:47:34;145.77;;;8.10;;
5630;SDS011;2837;50.990;7.124;2022-08-07T13:50:01;146.83;;;8.10;;
5630;SDS011;2837;50.990;7.124;2022-08-07T13:52:29;145.90;;;8.47;;
5630;SDS011;2837;50.990;7.124;2022-08-07T13:54:56;144.80;;;7.90;;
5630;SDS011;2837;50.990;7.124;2022-08-07T13:57:26;145.03;;;7.40;;
5630;SDS011;2837;50.990;7.124;2022-08-07T13:59:53;144.97;;;7.30;;
5630;SDS011;2837;50.990;7.124;2022-08-07T14:02:24;145.67;;;7.70;;
5630;SDS011;2837;50.990;7.124;2022-08-07T14:04:53;145.90;;;8.03;;
5630;SDS011;2837;50.990;7.124;2022-08-07T14:07:23;145.37;;;8.07;;
5630;SDS011;2837;50.990;7.124;2022-08-07T14:09:52;145.57;;;8.40;;
5630;SDS011;2837;50.990;7.124;2022-08-07T14:12:24;144.23;;;7.10;;
5630;SDS011;2837;50.990;7.124;2022-08-07T14:14:54;144.50;;;7.13;;
5630;SDS011;2837;50.990;7.124;2022-08-07T14:17:25;145.30;;;7.80;;
5630;SDS011;2837;50.990;7.124;2022-08-07T14:20:02;145.93;;;8.23;;
5630;SDS011;2837;50.990;7.124;2022-08-07T14:22:32;147.57;;;8.73;;
5630;SDS011;2837;50.990;7.124;2022-08-07T14:25:00;144.50;;;7.40;;
5630;SDS011;2837;50.990;7.124;2022-08-07T14:27:34;146.80;;;8.67;;
5630;SDS011;2837;50.990;7.124;2022-08-07T14:30:05;145.37;;;7.80;;
5630;SDS011;2837;50.990;7.124;2022-08-07T14:32:37;145.77;;;8.83;;
5630;SDS011;2837;50.990;7.124;2022-08-07T14:35:09;145.07;;;8.00;;
5630;SDS011;2837;50.990;7.124;2022-08-07T14:37:41;146.07;;;8.40;;
5630;SDS011;2837;50.990;7.124;2022-08-07T14:40:12;144.93;;;8.00;;
5630;SDS011;2837;50.990;7.124;2022-08-07T14:42:40;145.10;;;8.20;;
5630;SDS011;2837;50.990;7.124;2022-08-07T14:45:06;145.33;;;8.03;;
5630;SDS011;2837;50.990;7.124;2022-08-07T14:47:36;144.37;;;7.13;;
5630;SDS011;2837;50.990;7.124;2022-08-07T14:50:05;145.90;;;8.23;;
5630;SDS011;2837;50.990;7.124;2022-08-07T14:52:33;144.87;;;7.77;;
5630;SDS011;2837;50.990;7.124;2022-08-07T14:55:01;144.47;;;7.67;;
5630;SDS011;2837;50.990;7.124;2022-08-07T14:57:30;144.50;;;7.63;;
5630;SDS011;2837;50.990;7.124;2022-08-07T14:59:58;143.67;;;6.73;;
5630;SDS011;2837;50.990;7.124;2022-08-07T15:02:26;145.17;;;7.60;;
5630;SDS011;2837;50.990;7.124;2022-08-07T15:04:52;145.43;;;8.20;;
5630;SDS011;2837;50.990;7.124;2022-08-07T15:07:19;144.63;;;7.33;;
5630;SDS011;2837;50.990;7.124;2022-08-07T15:09:47;144.97;;;7.97;;
5630;SDS011;2837;50.990;7.124;2022-08-07T15:12:18;145.40;;;8.30;;
5630;SDS011;2837;50.990;7.124;2022-08-07T15:14:48;145.67;;;7.93;;
5630;SDS011;2837;50.990;7.124;2022-08-07T15:17:23;145.27;;;7.60;;
5630;SDS011;2837;50.990;7.124;2022-08-07T15:20:02;146.27;;;8.90;;
5630;SDS011;2837;50.990;7.124;2022-08-07T15:22:45;145.80;;;8.13;;
5630;SDS011;2837;50.990;7.124;2022-08-07T15:25:13;148.97;;;7.93;;
5630;SDS011;2837;50.990;7.124;2022-08-07T15:27:43;145.07;;;8.17;;
5630;SDS011;2837;50.990;7.124;2022-08-07T15:30:11;145.10;;;7.90;;
5630;SDS011;2837;50.990;7.124;2022-08-07T15:32:43;145.60;;;8.53;;
5630;SDS011;2837;50.990;7.124;2022-08-07T15:35:14;144.87;;;8.30;;
5630;SDS011;2837;50.990;7.124;2022-08-07T15:37:52;144.20;;;7.10;;
5630;SDS011;2837;50.990;7.124;2022-08-07T15:40:20;145.07;;;7.60;;
5630;SDS011;2837;50.990;7.124;2022-08-07T15:42:50;147.90;;;7.80;;
5630;SDS011;2837;50.990;7.124;2022-08-07T15:47:56;144.97;;;7.93;;
5630;SDS011;2837;50.990;7.124;2022-08-07T15:50:29;145.63;;;7.23;;
5630;SDS011;2837;50.990;7.124;2022-08-07T15:52:59;144.67;;;8.00;;
5630;SDS011;2837;50.990;7.124;2022-08-07T15:55:30;145.40;;;8.23;;
5630;SDS011;2837;50.990;7.124;2022-08-07T15:57:58;148.53;;;8.43;;
5630;SDS011;2837;50.990;7.124;2022-08-07T16:00:29;144.57;;;8.13;;
5630;SDS011;2837;50.990;7.124;2022-08-07T16:02:58;144.00;;;7.13;;
5630;SDS011;2837;50.990;7.124;2022-08-07T16:05:30;144.50;;;7.47;;
5630;SDS011;2837;50.990;7.124;2022-08-07T16:08:09;145.37;;;7.43;;
5630;SDS011;2837;50.990;7.124;2022-08-07T16:10:37;149.57;;;8.47;;
5630;SDS011;2837;50.990;7.124;2022-08-07T16:15:52;144.37;;;7.40;;
5630;SDS011;2837;50.990;7.124;2022-08-07T16:32:34;146.27;;;8.63;;
5630;SDS011;2837;50.990;7.124;2022-08-07T16:35:15;144.33;;;6.90;;
5630;SDS011;2837;50.990;7.124;2022-08-07T16:37:56;144.00;;;7.60;;
5630;SDS011;2837;50.990;7.124;2022-08-07T16:43:42;143.27;;;6.83;;
5630;SDS011;2837;50.990;7.124;2022-08-07T16:54:33;144.87;;;8.43;;
5630;SDS011;2837;50.990;7.124;2022-08-07T16:57:29;143.67;;;6.97;;
5630;SDS011;2837;50.990;7.124;2022-08-07T17:00:16;143.60;;;7.20;;
5630;SDS011;2837;50.990;7.124;2022-08-07T17:08:09;143.77;;;7.33;;
5630;SDS011;2837;50.990;7.124;2022-08-07T17:18:15;143.50;;;7.13;;
5630;SDS011;2837;50.990;7.124;2022-08-07T17:20:47;143.77;;;7.43;;
5630;SDS011;2837;50.990;7.124;2022-08-07T17:26:10;143.07;;;7.03;;
5630;SDS011;2837;50.990;7.124;2022-08-07T17:31:22;143.80;;;7.67;;
5630;SDS011;2837;50.990;7.124;2022-08-07T17:34:11;144.27;;;6.60;;
5630;SDS011;2837;50.990;7.124;2022-08-07T17:36:59;143.50;;;7.13;;
5630;SDS011;2837;50.990;7.124;2022-08-07T17:39:33;142.33;;;7.03;;
5630;SDS011;2837;50.990;7.124;2022-08-07T17:42:05;143.27;;;7.20;;
5630;SDS011;2837;50.990;7.124;2022-08-07T17:47:17;143.30;;;7.50;;
5630;SDS011;2837;50.990;7.124;2022-08-07T17:49:56;142.87;;;6.90;;
5630;SDS011;2837;50.990;7.124;2022-08-07T17:52:37;143.47;;;7.70;;
5630;SDS011;2837;50.990;7.124;2022-08-07T17:55:14;142.80;;;6.80;;
5630;SDS011;2837;50.990;7.124;2022-08-07T18:00:14;143.10;;;7.50;;
5630;SDS011;2837;50.990;7.124;2022-08-07T18:02:52;144.73;;;7.20;;
5630;SDS011;2837;50.990;7.124;2022-08-07T18:05:30;144.43;;;7.60;;
5630;SDS011;2837;50.990;7.124;2022-08-07T18:08:06;144.77;;;7.17;;
5630;SDS011;2837;50.990;7.124;2022-08-07T18:10:48;145.73;;;7.33;;
5630;SDS011;2837;50.990;7.124;2022-08-07T18:18:48;144.57;;;7.57;;
5630;SDS011;2837;50.990;7.124;2022-08-07T18:21:21;144.37;;;7.33;;
5630;SDS011;2837;50.990;7.124;2022-08-07T18:24:13;145.37;;;6.83;;
5630;SDS011;2837;50.990;7.124;2022-08-07T18:32:39;144.47;;;7.17;;
5630;SDS011;2837;50.990;7.124;2022-08-07T18:35:35;144.87;;;8.03;;
5630;SDS011;2837;50.990;7.124;2022-08-07T18:38:17;144.67;;;7.53;;
5630;SDS011;2837;50.990;7.124;2022-08-07T18:40:52;144.53;;;7.53;;
5630;SDS011;2837;50.990;7.124;2022-08-07T18:46:36;144.97;;;8.17;;
5630;SDS011;2837;50.990;7.124;2022-08-07T18:52:24;144.17;;;7.10;;
5630;SDS011;2837;50.990;7.124;2022-08-07T19:00:34;144.80;;;7.40;;
5630;SDS011;2837;50.990;7.124;2022-08-07T19:03:21;144.97;;;7.37;;
5630;SDS011;2837;50.990;7.124;2022-08-07T19:11:14;145.20;;;8.40;;
5630;SDS011;2837;50.990;7.124;2022-08-07T19:19:07;146.20;;;8.27;;
5630;SDS011;2837;50.990;7.124;2022-08-07T19:24:26;146.07;;;8.60;;
5630;SDS011;2837;50.990;7.124;2022-08-07T19:27:02;145.30;;;8.40;;
5630;SDS011;2837;50.990;7.124;2022-08-07T19:29:31;145.20;;;7.27;;
5630;SDS011;2837;50.990;7.124;2022-08-07T19:32:04;145.50;;;7.83;;
5630;SDS011;2837;50.990;7.124;2022-08-07T19:34:31;144.80;;;7.80;;
5630;SDS011;2837;50.990;7.124;2022-08-07T19:36:58;145.57;;;8.30;;
5630;SDS011;2837;50.990;7.124;2022-08-07T19:39:25;145.27;;;7.67;;
5630;SDS011;2837;50.990;7.124;2022-08-07T19:41:55;146.07;;;7.87;;
5630;SDS011;2837;50.990;7.124;2022-08-07T19:44:24;145.37;;;7.90;;
5630;SDS011;2837;50.990;7.124;2022-08-07T19:46:54;145.83;;;8.10;;
5630;SDS011;2837;50.990;7.124;2022-08-07T19:49:30;145.97;;;8.43;;
5630;SDS011;2837;50.990;7.124;2022-08-07T19:51:57;152.00;;;8.70;;
5630;SDS011;2837;50.990;7.124;2022-08-07T19:54:23;145.60;;;7.60;;
5630;SDS011;2837;50.990;7.124;2022-08-07T19:56:50;145.50;;;8.13;;
5630;SDS011;2837;50.990;7.124;2022-08-07T19:59:27;145.30;;;7.67;;
5630;SDS011;2837;50.990;7.124;2022-08-07T20:01:55;145.10;;;7.90;;
5630;SDS011;2837;50.990;7.124;2022-08-07T20:04:26;145.77;;;7.60;;
5630;SDS011;2837;50.990;7.124;2022-08-07T20:06:59;147.10;;;8.20;;
5630;SDS011;2837;50.990;7.124;2022-08-07T20:09:26;145.23;;;7.70;;
5630;SDS011;2837;50.990;7.124;2022-08-07T20:11:55;146.30;;;8.20;;
5630;SDS011;2837;50.990;7.124;2022-08-07T20:14:29;146.17;;;7.83;;
5630;SDS011;2837;50.990;7.124;2022-08-07T20:16:59;145.77;;;8.07;;
5630;SDS011;2837;50.990;7.124;2022-08-07T20:19:27;147.50;;;8.30;;
5630;SDS011;2837;50.990;7.124;2022-08-07T20:21:54;146.17;;;8.20;;
5630;SDS011;2837;50.990;7.124;2022-08-07T20:24:22;146.27;;;7.30;;
5630;SDS011;2837;50.990;7.124;2022-08-07T20:26:51;146.07;;;8.67;;
5630;SDS011;2837;50.990;7.124;2022-08-07T20:29:26;146.37;;;8.50;;
5630;SDS011;2837;50.990;7.124;2022-08-07T20:31:55;146.17;;;7.63;;
5630;SDS011;2837;50.990;7.124;2022-08-07T20:34:24;146.50;;;8.03;;
5630;SDS011;2837;50.990;7.124;2022-08-07T20:36:52;146.00;;;7.80;;
5630;SDS011;2837;50.990;7.124;2022-08-07T20:39:22;147.13;;;8.27;;
5630;SDS011;2837;50.990;7.124;2022-08-07T20:41:51;146.37;;;8.17;;
5630;SDS011;2837;50.990;7.124;2022-08-07T20:44:17;147.00;;;8.00;;
5630;SDS011;2837;50.990;7.124;2022-08-07T20:46:51;146.90;;;8.53;;
5630;SDS011;2837;50.990;7.124;2022-08-07T20:49:18;146.30;;;7.70;;
5630;SDS011;2837;50.990;7.124;2022-08-07T20:51:49;151.07;;;7.90;;
5630;SDS011;2837;50.990;7.124;2022-08-07T20:54:16;147.60;;;7.83;;
5630;SDS011;2837;50.990;7.124;2022-08-07T20:56:49;147.27;;;8.47;;
5630;SDS011;2837;50.990;7.124;2022-08-07T20:59:17;147.20;;;8.17;;
